Impacts TAF Board INFO
FOR SITUATIONAL AWARENESS. NOT TO BE USED FOR FLIGHT PLANNING PURPOSES.
IDs:

KSAN - San Diego Intl Arpt, CA, US

Issued at 2328 UTC 17 Aug 2018
Updated at 0126 UTC 18 Aug 2018
Potential Impact None Slight Moderate High
Time0051Z 18/02Z 18/03Z 18/04Z 18/05Z 18/06Z 18/07Z 18/08Z 18/09Z 18/10Z 18/11Z 18/12Z 18/13Z 18/14Z>>
Type OBS PRVL PRVL PRVL PRVL PRVL PRVL PRVL PRVL PRVL PRVL PRVL PRVL PRVL
VIS 10 >6 >6 >6 >6 >6 >6 >6 >6 >6 >6 >6 >6 >6
CIG 60 -- -- -- -- 15 15 15 15 15 15 15 15 15
Cover BKN SCT SCT SCT SCT BKN BKN BKN BKN BKN BKN BKN BKN BKN
FltCat VFR VFR VFR VFR VFR MVFR MVFR MVFR MVFR MVFR MVFR MVFR MVFR MVFR
WX -- -- -- -- -- -- -- -- -- -- -- -- -- --
WDir 280 300 VRB VRB VRB VRB VRB VRB VRB VRB VRB VRB VRB VRB
WSpd 7 9 4 4 4 4 4 4 4 4 4 4 4 4
WGst -- -- -- -- -- -- -- -- -- -- -- -- -- --

Raw TAF
KSAN 172328Z 1800/1906 30009KT P6SM SCT017 SCT080
  FM180300 VRB04KT P6SM SCT015
  FM180600 VRB04KT P6SM BKN015
  FM181700 VRB04KT P6SM SCT017
  FM181900 28009KT P6SM SKC
  FM190300 VRB04KT P6SM FEW013


Raw METAR
KSAN 180051Z 28007KT 10SM SCT016 BKN060 BKN250 26/20 A3002 RMK AO2 SLP165 SCT V BKN CB DSNT NE T02610200
KSAN 172351Z 31007KT 10SM SCT017 BKN060 BKN250 26/19 A3002 RMK AO2 SLP166 CB DSNT NE TCU DSNT NE T02610194 10278 20261 56008
KSAN 172251Z 30010KT 10SM FEW019 SCT060 SCT250 27/19 A3002 RMK AO2 SLP166 CB DSNT NE CB DSNT E T02720194

METAR Board
Radar Display
Forecast Discussion

FOR SITUATIONAL AWARENESS. NOT TO BE USED FOR FLIGHT PLANNING PURPOSES.